sensor_id;sensor_type;location;lat;lon;timestamp;pressure;altitude;pressure_sealevel;temperature;humidity
67803;BME280;54601;51.378;-1.342;2023-03-25T00:01:40;98596.50;;;19.38;30.91
67803;BME280;54601;51.378;-1.342;2023-03-25T00:04:05;98602.15;;;19.71;30.81
67803;BME280;54601;51.378;-1.342;2023-03-25T00:06:32;98602.02;;;19.76;30.72
67803;BME280;54601;51.378;-1.342;2023-03-25T00:08:56;98600.13;;;19.28;30.94
67803;BME280;54601;51.378;-1.342;2023-03-25T00:11:21;98600.26;;;19.56;30.91
67803;BME280;54601;51.378;-1.342;2023-03-25T00:13:46;98597.79;;;19.99;30.67
67803;BME280;54601;51.378;-1.342;2023-03-25T00:16:11;98602.15;;;19.23;30.95
67803;BME280;54601;51.378;-1.342;2023-03-25T00:18:36;98604.91;;;19.43;30.76
67803;BME280;54601;51.378;-1.342;2023-03-25T00:21:04;98603.63;;;19.47;30.96
67803;BME280;54601;51.378;-1.342;2023-03-25T00:23:28;98610.74;;;19.75;30.84
67803;BME280;54601;51.378;-1.342;2023-03-25T00:25:52;98609.94;;;19.49;30.90
67803;BME280;54601;51.378;-1.342;2023-03-25T00:28:17;98611.61;;;19.29;31.13
67803;BME280;54601;51.378;-1.342;2023-03-25T00:30:44;98609.02;;;19.55;30.79
67803;BME280;54601;51.378;-1.342;2023-03-25T00:33:08;98612.35;;;19.53;30.85
67803;BME280;54601;51.378;-1.342;2023-03-25T00:35:33;98604.04;;;19.67;30.92
67803;BME280;54601;51.378;-1.342;2023-03-25T00:37:58;98596.23;;;19.21;30.88
67803;BME280;54601;51.378;-1.342;2023-03-25T00:40:23;98605.81;;;19.40;30.89
67803;BME280;54601;51.378;-1.342;2023-03-25T00:42:48;98607.07;;;19.61;30.92
67803;BME280;54601;51.378;-1.342;2023-03-25T00:45:14;98606.66;;;19.40;30.91
67803;BME280;54601;51.378;-1.342;2023-03-25T00:47:38;98601.78;;;19.31;31.00
67803;BME280;54601;51.378;-1.342;2023-03-25T00:50:05;98608.13;;;19.23;31.08
67803;BME280;54601;51.378;-1.342;2023-03-25T00:52:29;98609.21;;;19.45;31.06
67803;BME280;54601;51.378;-1.342;2023-03-25T00:54:54;98599.13;;;19.32;30.93
67803;BME280;54601;51.378;-1.342;2023-03-25T00:57:19;98610.89;;;19.57;30.86
67803;BME280;54601;51.378;-1.342;2023-03-25T00:59:44;98606.99;;;19.53;30.82
67803;BME280;54601;51.378;-1.342;2023-03-25T01:02:10;98612.48;;;19.36;30.83
67803;BME280;54601;51.378;-1.342;2023-03-25T01:04:35;98621.55;;;19.42;30.75
67803;BME280;54601;51.378;-1.342;2023-03-25T01:07:00;98614.86;;;19.41;30.76
67803;BME280;54601;51.378;-1.342;2023-03-25T01:09:25;98618.17;;;19.35;30.80
67803;BME280;54601;51.378;-1.342;2023-03-25T01:11:50;98617.62;;;19.28;30.89
67803;BME280;54601;51.378;-1.342;2023-03-25T01:14:18;98612.83;;;19.22;30.94
67803;BME280;54601;51.378;-1.342;2023-03-25T01:16:41;98609.94;;;19.33;30.83
67803;BME280;54601;51.378;-1.342;2023-03-25T01:19:06;98610.92;;;19.28;30.87
67803;BME280;54601;51.378;-1.342;2023-03-25T01:21:31;98608.62;;;19.30;30.78
67803;BME280;54601;51.378;-1.342;2023-03-25T01:23:56;98607.99;;;19.29;30.79
67803;BME280;54601;51.378;-1.342;2023-03-25T01:26:22;98608.52;;;19.41;30.92
67803;BME280;54601;51.378;-1.342;2023-03-25T01:28:47;98607.53;;;19.11;30.96
67803;BME280;54601;51.378;-1.342;2023-03-25T01:31:13;98608.26;;;19.33;31.01
67803;BME280;54601;51.378;-1.342;2023-03-25T01:33:38;98607.54;;;19.32;30.78
67803;BME280;54601;51.378;-1.342;2023-03-25T01:36:03;98605.09;;;19.58;30.74
67803;BME280;54601;51.378;-1.342;2023-03-25T01:38:28;98611.86;;;19.15;30.94
67803;BME280;54601;51.378;-1.342;2023-03-25T01:40:53;98602.49;;;19.45;30.86
67803;BME280;54601;51.378;-1.342;2023-03-25T01:43:18;98610.63;;;19.56;30.75
67803;BME280;54601;51.378;-1.342;2023-03-25T01:45:43;98600.50;;;19.35;30.91
67803;BME280;54601;51.378;-1.342;2023-03-25T01:48:11;98602.68;;;19.28;31.00
67803;BME280;54601;51.378;-1.342;2023-03-25T01:50:35;98601.24;;;19.28;30.78
67803;BME280;54601;51.378;-1.342;2023-03-25T01:53:00;98613.11;;;19.21;30.89
67803;BME280;54601;51.378;-1.342;2023-03-25T01:55:24;98613.35;;;19.33;30.72
67803;BME280;54601;51.378;-1.342;2023-03-25T01:57:52;98622.15;;;19.18;30.89
67803;BME280;54601;51.378;-1.342;2023-03-25T02:00:15;98614.35;;;19.21;30.90
67803;BME280;54601;51.378;-1.342;2023-03-25T02:02:40;98625.46;;;19.15;30.91
67803;BME280;54601;51.378;-1.342;2023-03-25T02:05:08;98631.05;;;19.32;30.79
67803;BME280;54601;51.378;-1.342;2023-03-25T02:07:32;98627.50;;;19.36;30.71
67803;BME280;54601;51.378;-1.342;2023-03-25T02:09:55;98631.02;;;19.56;30.74
67803;BME280;54601;51.378;-1.342;2023-03-25T02:12:20;98644.04;;;19.30;30.81
67803;BME280;54601;51.378;-1.342;2023-03-25T02:14:46;98634.37;;;19.36;30.80
67803;BME280;54601;51.378;-1.342;2023-03-25T02:17:17;98639.25;;;19.22;30.92
67803;BME280;54601;51.378;-1.342;2023-03-25T02:22:13;98631.00;;;19.51;30.61
67803;BME280;54601;51.378;-1.342;2023-03-25T02:27:03;98633.75;;;19.49;30.54
67803;BME280;54601;51.378;-1.342;2023-03-25T02:29:24;98643.66;;;19.25;30.91
67803;BME280;54601;51.378;-1.342;2023-03-25T02:31:49;98645.12;;;19.54;30.59
67803;BME280;54601;51.378;-1.342;2023-03-25T02:34:16;98639.56;;;19.68;30.69
67803;BME280;54601;51.378;-1.342;2023-03-25T02:39:00;98639.99;;;19.81;30.58
67803;BME280;54601;51.378;-1.342;2023-03-25T02:41:25;98643.32;;;19.76;30.61
67803;BME280;54601;51.378;-1.342;2023-03-25T02:43:52;98651.30;;;19.36;30.83
67803;BME280;54601;51.378;-1.342;2023-03-25T02:46:15;98643.46;;;19.21;30.71
67803;BME280;54601;51.378;-1.342;2023-03-25T02:48:41;98644.46;;;19.70;30.71
67803;BME280;54601;51.378;-1.342;2023-03-25T02:51:08;98641.91;;;19.58;30.61
67803;BME280;54601;51.378;-1.342;2023-03-25T02:53:30;98644.89;;;19.24;30.68
67803;BME280;54601;51.378;-1.342;2023-03-25T02:55:56;98645.75;;;19.63;30.57
67803;BME280;54601;51.378;-1.342;2023-03-25T02:58:19;98660.32;;;19.26;30.93
67803;BME280;54601;51.378;-1.342;2023-03-25T03:00:44;98657.67;;;19.06;31.18
67803;BME280;54601;51.378;-1.342;2023-03-25T03:03:09;98657.60;;;18.80;31.25
67803;BME280;54601;51.378;-1.342;2023-03-25T03:05:36;98670.07;;;19.38;31.20
67803;BME280;54601;51.378;-1.342;2023-03-25T03:08:09;98664.71;;;18.73;31.41
67803;BME280;54601;51.378;-1.342;2023-03-25T03:10:26;98672.18;;;19.05;31.37
67803;BME280;54601;51.378;-1.342;2023-03-25T03:12:58;98675.76;;;18.76;31.39
67803;BME280;54601;51.378;-1.342;2023-03-25T03:15:28;98678.15;;;19.13;31.33
67803;BME280;54601;51.378;-1.342;2023-03-25T03:17:45;98665.79;;;18.72;31.45
67803;BME280;54601;51.378;-1.342;2023-03-25T03:20:13;98671.21;;;18.96;31.26
67803;BME280;54601;51.378;-1.342;2023-03-25T03:22:38;98677.65;;;19.25;31.25
67803;BME280;54601;51.378;-1.342;2023-03-25T03:25:01;98673.74;;;19.19;31.32
67803;BME280;54601;51.378;-1.342;2023-03-25T03:27:25;98675.25;;;19.11;31.43
67803;BME280;54601;51.378;-1.342;2023-03-25T03:29:48;98687.44;;;18.83;31.47
67803;BME280;54601;51.378;-1.342;2023-03-25T03:32:14;98683.01;;;18.77;31.49
67803;BME280;54601;51.378;-1.342;2023-03-25T03:34:41;98695.79;;;18.86;31.47
67803;BME280;54601;51.378;-1.342;2023-03-25T03:37:02;98695.73;;;19.09;31.53
67803;BME280;54601;51.378;-1.342;2023-03-25T03:39:29;98701.35;;;18.81;31.58
67803;BME280;54601;51.378;-1.342;2023-03-25T03:41:54;98709.98;;;18.95;31.42
67803;BME280;54601;51.378;-1.342;2023-03-25T03:44:19;98709.17;;;19.06;31.62
67803;BME280;54601;51.378;-1.342;2023-03-25T03:46:46;98709.54;;;19.14;31.54
67803;BME280;54601;51.378;-1.342;2023-03-25T03:49:09;98714.16;;;19.31;31.34
67803;BME280;54601;51.378;-1.342;2023-03-25T03:51:36;98711.11;;;19.30;31.39
67803;BME280;54601;51.378;-1.342;2023-03-25T03:53:59;98705.87;;;19.27;31.43
67803;BME280;54601;51.378;-1.342;2023-03-25T03:56:25;98702.77;;;18.95;31.51
67803;BME280;54601;51.378;-1.342;2023-03-25T03:58:50;98704.79;;;19.07;31.40
67803;BME280;54601;51.378;-1.342;2023-03-25T04:01:17;98705.23;;;19.25;31.50
67803;BME280;54601;51.378;-1.342;2023-03-25T04:03:41;98695.16;;;19.34;31.65
67803;BME280;54601;51.378;-1.342;2023-03-25T04:06:09;98696.83;;;19.49;31.50
67803;BME280;54601;51.378;-1.342;2023-03-25T04:08:30;98703.92;;;18.84;31.68
67803;BME280;54601;51.378;-1.342;2023-03-25T04:10:56;98705.92;;;19.25;31.55
67803;BME280;54601;51.378;-1.342;2023-03-25T04:13:20;98713.89;;;19.00;31.52
67803;BME280;54601;51.378;-1.342;2023-03-25T04:15:44;98707.83;;;19.24;31.57
67803;BME280;54601;51.378;-1.342;2023-03-25T04:18:09;98697.29;;;18.73;31.80
67803;BME280;54601;51.378;-1.342;2023-03-25T04:20:34;98701.82;;;18.95;31.56
67803;BME280;54601;51.378;-1.342;2023-03-25T04:22:59;98709.25;;;18.96;31.48
67803;BME280;54601;51.378;-1.342;2023-03-25T04:25:24;98707.96;;;19.01;31.50
67803;BME280;54601;51.378;-1.342;2023-03-25T04:27:49;98707.84;;;18.91;31.55
67803;BME280;54601;51.378;-1.342;2023-03-25T04:30:15;98716.77;;;19.27;31.52
67803;BME280;54601;51.378;-1.342;2023-03-25T04:32:40;98708.24;;;18.81;31.70
67803;BME280;54601;51.378;-1.342;2023-03-25T04:35:05;98718.56;;;19.16;31.33
67803;BME280;54601;51.378;-1.342;2023-03-25T04:37:30;98714.82;;;18.97;31.54
67803;BME280;54601;51.378;-1.342;2023-03-25T04:39:55;98716.84;;;19.03;31.46
67803;BME280;54601;51.378;-1.342;2023-03-25T04:42:21;98719.32;;;19.12;31.40
67803;BME280;54601;51.378;-1.342;2023-03-25T04:44:46;98712.95;;;19.09;31.42
67803;BME280;54601;51.378;-1.342;2023-03-25T04:47:13;98718.50;;;19.15;31.34
67803;BME280;54601;51.378;-1.342;2023-03-25T04:49:36;98720.78;;;19.09;31.39
67803;BME280;54601;51.378;-1.342;2023-03-25T04:52:01;98724.45;;;19.13;31.34
67803;BME280;54601;51.378;-1.342;2023-03-25T04:54:26;98715.95;;;19.15;31.31
67803;BME280;54601;51.378;-1.342;2023-03-25T04:56:51;98726.63;;;19.28;31.68
67803;BME280;54601;51.378;-1.342;2023-03-25T04:59:17;98729.36;;;18.96;31.79
67803;BME280;54601;51.378;-1.342;2023-03-25T05:01:42;98721.73;;;18.94;31.53
67803;BME280;54601;51.378;-1.342;2023-03-25T05:04:09;98721.36;;;19.07;31.26
67803;BME280;54601;51.378;-1.342;2023-03-25T05:06:33;98727.89;;;19.06;31.37
67803;BME280;54601;51.378;-1.342;2023-03-25T05:08:57;98723.03;;;19.16;31.29
67803;BME280;54601;51.378;-1.342;2023-03-25T05:11:22;98724.45;;;18.93;31.46
67803;BME280;54601;51.378;-1.342;2023-03-25T05:13:47;98732.42;;;19.06;31.33
67803;BME280;54601;51.378;-1.342;2023-03-25T05:16:12;98737.83;;;19.08;31.24
67803;BME280;54601;51.378;-1.342;2023-03-25T05:18:38;98748.22;;;19.09;31.27
67803;BME280;54601;51.378;-1.342;2023-03-25T05:21:03;98747.08;;;18.64;31.53
67803;BME280;54601;51.378;-1.342;2023-03-25T05:23:28;98740.76;;;19.22;31.41
67803;BME280;54601;51.378;-1.342;2023-03-25T05:25:53;98744.82;;;19.05;31.28
67803;BME280;54601;51.378;-1.342;2023-03-25T05:28:18;98743.11;;;19.05;31.24
67803;BME280;54601;51.378;-1.342;2023-03-25T05:30:45;98751.89;;;19.43;31.15
67803;BME280;54601;51.378;-1.342;2023-03-25T05:33:09;98755.85;;;19.04;31.24
67803;BME280;54601;51.378;-1.342;2023-03-25T05:35:34;98753.53;;;19.18;30.98
67803;BME280;54601;51.378;-1.342;2023-03-25T05:37:59;98763.31;;;19.42;30.79
67803;BME280;54601;51.378;-1.342;2023-03-25T05:40:24;98768.26;;;19.55;30.68
67803;BME280;54601;51.378;-1.342;2023-03-25T05:42:49;98773.22;;;19.59;30.58
67803;BME280;54601;51.378;-1.342;2023-03-25T05:45:15;98775.98;;;19.65;30.48
67803;BME280;54601;51.378;-1.342;2023-03-25T05:47:39;98783.32;;;19.60;30.54
67803;BME280;54601;51.378;-1.342;2023-03-25T05:50:06;98790.87;;;19.35;30.75
67803;BME280;54601;51.378;-1.342;2023-03-25T05:52:30;98790.58;;;19.69;30.40
67803;BME280;54601;51.378;-1.342;2023-03-25T05:54:55;98797.78;;;19.75;30.35
67803;BME280;54601;51.378;-1.342;2023-03-25T05:57:20;98800.38;;;19.75;30.34
67803;BME280;54601;51.378;-1.342;2023-03-25T05:59:45;98802.81;;;19.58;30.27
67803;BME280;54601;51.378;-1.342;2023-03-25T06:02:13;98802.78;;;19.71;30.36
67803;BME280;54601;51.378;-1.342;2023-03-25T06:04:35;98797.24;;;19.71;30.31
67803;BME280;54601;51.378;-1.342;2023-03-25T06:07:00;98798.34;;;19.69;30.27
67803;BME280;54601;51.378;-1.342;2023-03-25T06:09:26;98801.36;;;19.73;30.27
67803;BME280;54601;51.378;-1.342;2023-03-25T06:11:51;98802.28;;;19.87;30.11
67803;BME280;54601;51.378;-1.342;2023-03-25T06:14:16;98801.21;;;19.57;30.17
67803;BME280;54601;51.378;-1.342;2023-03-25T06:16:41;98799.98;;;19.78;30.11
67803;BME280;54601;51.378;-1.342;2023-03-25T06:19:06;98801.66;;;19.70;30.22
67803;BME280;54601;51.378;-1.342;2023-03-25T06:21:32;98807.06;;;19.47;30.42
67803;BME280;54601;51.378;-1.342;2023-03-25T06:23:57;98821.83;;;19.45;30.38
67803;BME280;54601;51.378;-1.342;2023-03-25T06:26:22;98825.19;;;19.45;30.49
67803;BME280;54601;51.378;-1.342;2023-03-25T06:28:47;98830.67;;;19.42;30.45
67803;BME280;54601;51.378;-1.342;2023-03-25T06:31:12;98832.49;;;19.61;30.31
67803;BME280;54601;51.378;-1.342;2023-03-25T06:33:37;98836.67;;;19.81;30.38
67803;BME280;54601;51.378;-1.342;2023-03-25T06:36:02;98854.14;;;19.79;30.34
67803;BME280;54601;51.378;-1.342;2023-03-25T06:38:27;98847.63;;;19.60;30.25
67803;BME280;54601;51.378;-1.342;2023-03-25T06:40:52;98864.36;;;19.40;30.32
67803;BME280;54601;51.378;-1.342;2023-03-25T06:43:17;98860.27;;;19.54;30.28
67803;BME280;54601;51.378;-1.342;2023-03-25T06:45:43;98863.01;;;19.57;30.26
67803;BME280;54601;51.378;-1.342;2023-03-25T06:48:08;98869.22;;;19.40;30.43
67803;BME280;54601;51.378;-1.342;2023-03-25T06:50:33;98869.06;;;19.61;30.17
67803;BME280;54601;51.378;-1.342;2023-03-25T06:52:58;98879.01;;;19.25;30.50
67803;BME280;54601;51.378;-1.342;2023-03-25T06:55:23;98881.35;;;19.52;30.57
67803;BME280;54601;51.378;-1.342;2023-03-25T06:57:48;98876.37;;;19.56;30.46
67803;BME280;54601;51.378;-1.342;2023-03-25T07:00:14;98884.63;;;19.38;30.42
67803;BME280;54601;51.378;-1.342;2023-03-25T07:02:39;98880.35;;;19.92;30.37
67803;BME280;54601;51.378;-1.342;2023-03-25T07:05:05;98891.28;;;19.51;30.27
67803;BME280;54601;51.378;-1.342;2023-03-25T07:07:29;98893.42;;;19.32;30.41
67803;BME280;54601;51.378;-1.342;2023-03-25T07:09:54;98889.50;;;19.29;30.45
67803;BME280;54601;51.378;-1.342;2023-03-25T07:12:19;98899.25;;;19.48;30.30
67803;BME280;54601;51.378;-1.342;2023-03-25T07:14:50;98898.61;;;19.64;30.42
67803;BME280;54601;51.378;-1.342;2023-03-25T07:17:09;98909.17;;;19.36;30.39
67803;BME280;54601;51.378;-1.342;2023-03-25T07:19:35;98910.49;;;19.77;30.31
67803;BME280;54601;51.378;-1.342;2023-03-25T07:22:00;98913.42;;;19.81;30.40
67803;BME280;54601;51.378;-1.342;2023-03-25T07:24:25;98920.96;;;19.86;30.33
67803;BME280;54601;51.378;-1.342;2023-03-25T07:26:50;98921.36;;;19.49;30.24
67803;BME280;54601;51.378;-1.342;2023-03-25T07:29:15;98925.61;;;19.21;30.49
67803;BME280;54601;51.378;-1.342;2023-03-25T07:31:40;98922.19;;;19.67;30.31
67803;BME280;54601;51.378;-1.342;2023-03-25T07:34:06;98919.30;;;18.94;30.82
67803;BME280;54601;51.378;-1.342;2023-03-25T07:36:31;98924.87;;;19.49;30.54
67803;BME280;54601;51.378;-1.342;2023-03-25T07:38:56;98927.08;;;19.53;30.51
67803;BME280;54601;51.378;-1.342;2023-03-25T07:41:21;98936.15;;;19.29;30.43
67803;BME280;54601;51.378;-1.342;2023-03-25T07:43:46;98939.13;;;19.45;30.32
67803;BME280;54601;51.378;-1.342;2023-03-25T07:46:11;98946.04;;;19.44;30.29
67803;BME280;54601;51.378;-1.342;2023-03-25T07:48:36;98952.89;;;19.35;30.45
67803;BME280;54601;51.378;-1.342;2023-03-25T07:51:02;98950.04;;;19.39;30.37
67803;BME280;54601;51.378;-1.342;2023-03-25T07:53:27;98959.85;;;19.72;30.35
67803;BME280;54601;51.378;-1.342;2023-03-25T07:55:52;98950.85;;;19.60;30.44
67803;BME280;54601;51.378;-1.342;2023-03-25T07:58:17;98962.34;;;19.47;30.79
67803;BME280;54601;51.378;-1.342;2023-03-25T08:00:42;98964.87;;;19.58;30.51
67803;BME280;54601;51.378;-1.342;2023-03-25T08:03:09;98969.37;;;19.00;30.85
67803;BME280;54601;51.378;-1.342;2023-03-25T08:05:32;98974.27;;;18.64;31.26
67803;BME280;54601;51.378;-1.342;2023-03-25T08:07:57;98976.18;;;19.44;30.71
67803;BME280;54601;51.378;-1.342;2023-03-25T08:10:23;98983.28;;;19.85;30.54
67803;BME280;54601;51.378;-1.342;2023-03-25T08:12:51;98980.19;;;19.32;30.59
67803;BME280;54601;51.378;-1.342;2023-03-25T08:15:13;98989.55;;;18.85;31.10
67803;BME280;54601;51.378;-1.342;2023-03-25T08:17:38;98987.26;;;18.95;30.94
67803;BME280;54601;51.378;-1.342;2023-03-25T08:20:04;98993.23;;;18.78;31.18
67803;BME280;54601;51.378;-1.342;2023-03-25T08:22:28;98998.04;;;18.35;31.79
67803;BME280;54601;51.378;-1.342;2023-03-25T08:24:54;98999.86;;;18.31;32.17
67803;BME280;54601;51.378;-1.342;2023-03-25T08:27:19;99001.68;;;18.26;32.33
67803;BME280;54601;51.378;-1.342;2023-03-25T08:29:44;99007.36;;;18.19;32.68
67803;BME280;54601;51.378;-1.342;2023-03-25T08:32:09;99007.47;;;18.25;32.13
67803;BME280;54601;51.378;-1.342;2023-03-25T08:34:34;99014.70;;;19.14;31.42
67803;BME280;54601;51.378;-1.342;2023-03-25T08:36:59;99026.00;;;18.73;31.57
67803;BME280;54601;51.378;-1.342;2023-03-25T08:39:24;99033.25;;;18.80;31.49
67803;BME280;54601;51.378;-1.342;2023-03-25T08:41:49;99036.73;;;19.18;31.33
67803;BME280;54601;51.378;-1.342;2023-03-25T08:44:15;99039.96;;;19.32;31.21
67803;BME280;54601;51.378;-1.342;2023-03-25T08:46:40;99043.45;;;19.43;30.81
67803;BME280;54601;51.378;-1.342;2023-03-25T08:49:05;99052.52;;;19.46;30.77
67803;BME280;54601;51.378;-1.342;2023-03-25T08:51:30;99048.03;;;19.59;30.64
67803;BME280;54601;51.378;-1.342;2023-03-25T08:53:55;99049.51;;;20.17;30.66
67803;BME280;54601;51.378;-1.342;2023-03-25T08:56:20;99058.12;;;19.74;30.76
67803;BME280;54601;51.378;-1.342;2023-03-25T08:58:46;99059.15;;;19.96;30.48
67803;BME280;54601;51.378;-1.342;2023-03-25T09:01:11;99065.15;;;20.10;30.54
67803;BME280;54601;51.378;-1.342;2023-03-25T09:03:36;99056.29;;;19.94;30.41
67803;BME280;54601;51.378;-1.342;2023-03-25T09:06:03;99060.58;;;20.40;30.17
67803;BME280;54601;51.378;-1.342;2023-03-25T09:08:26;99059.58;;;20.28;30.46
67803;BME280;54601;51.378;-1.342;2023-03-25T09:10:53;99072.59;;;20.53;30.13
67803;BME280;54601;51.378;-1.342;2023-03-25T09:13:16;99081.18;;;19.80;30.42
67803;BME280;54601;51.378;-1.342;2023-03-25T09:15:41;99076.85;;;19.40;31.00
67803;BME280;54601;51.378;-1.342;2023-03-25T09:18:07;99091.54;;;19.37;31.00
67803;BME280;54601;51.378;-1.342;2023-03-25T09:20:32;99089.62;;;19.65;30.92
67803;BME280;54601;51.378;-1.342;2023-03-25T09:22:57;99098.83;;;19.66;30.81
67803;BME280;54601;51.378;-1.342;2023-03-25T09:25:22;99101.01;;;19.86;30.72
67803;BME280;54601;51.378;-1.342;2023-03-25T09:27:47;99098.71;;;19.69;30.89
67803;BME280;54601;51.378;-1.342;2023-03-25T09:30:13;99096.00;;;19.74;30.83
67803;BME280;54601;51.378;-1.342;2023-03-25T09:32:37;99100.58;;;19.52;30.82
67803;BME280;54601;51.378;-1.342;2023-03-25T09:35:03;99109.90;;;19.81;30.77
67803;BME280;54601;51.378;-1.342;2023-03-25T09:37:27;99109.56;;;19.49;30.85
67803;BME280;54601;51.378;-1.342;2023-03-25T09:39:52;99118.04;;;19.83;30.71
67803;BME280;54601;51.378;-1.342;2023-03-25T09:44:51;99129.90;;;19.93;30.61
67803;BME280;54601;51.378;-1.342;2023-03-25T09:47:08;99132.41;;;19.95;30.59
67803;BME280;54601;51.378;-1.342;2023-03-25T09:49:36;99132.66;;;20.11;30.41
67803;BME280;54601;51.378;-1.342;2023-03-25T09:51:59;99132.82;;;19.76;30.57
67803;BME280;54601;51.378;-1.342;2023-03-25T09:54:28;99138.50;;;19.51;30.60
67803;BME280;54601;51.378;-1.342;2023-03-25T09:56:48;99142.17;;;20.11;30.43
67803;BME280;54601;51.378;-1.342;2023-03-25T09:59:17;99140.80;;;20.02;30.53
67803;BME280;54601;51.378;-1.342;2023-03-25T10:01:43;99143.57;;;19.75;30.56
67803;BME280;54601;51.378;-1.342;2023-03-25T10:04:13;99148.46;;;19.56;30.54
67803;BME280;54601;51.378;-1.342;2023-03-25T10:06:30;99151.17;;;19.67;30.66
67803;BME280;54601;51.378;-1.342;2023-03-25T10:09:03;99158.61;;;19.57;30.54
67803;BME280;54601;51.378;-1.342;2023-03-25T10:11:24;99158.35;;;19.89;30.69
67803;BME280;54601;51.378;-1.342;2023-03-25T10:13:50;99159.35;;;19.94;30.65
67803;BME280;54601;51.378;-1.342;2023-03-25T10:16:17;99156.64;;;20.02;30.52
67803;BME280;54601;51.378;-1.342;2023-03-25T10:18:47;99160.12;;;19.97;30.60
67803;BME280;54601;51.378;-1.342;2023-03-25T10:21:05;99170.97;;;20.16;30.41
67803;BME280;54601;51.378;-1.342;2023-03-25T10:23:31;99164.24;;;19.85;30.47
67803;BME280;54601;51.378;-1.342;2023-03-25T10:25:54;99178.12;;;19.85;30.45
67803;BME280;54601;51.378;-1.342;2023-03-25T10:28:18;99180.44;;;20.06;30.48
67803;BME280;54601;51.378;-1.342;2023-03-25T10:30:43;99185.44;;;20.03;30.49
67803;BME280;54601;51.378;-1.342;2023-03-25T10:33:19;99184.57;;;20.14;30.39
67803;BME280;54601;51.378;-1.342;2023-03-25T10:35:33;99188.62;;;19.95;30.85
67803;BME280;54601;51.378;-1.342;2023-03-25T10:37:58;99195.64;;;19.69;30.84
67803;BME280;54601;51.378;-1.342;2023-03-25T10:40:24;99192.74;;;19.91;30.82
67803;BME280;54601;51.378;-1.342;2023-03-25T10:42:54;99199.14;;;19.70;30.97
67803;BME280;54601;51.378;-1.342;2023-03-25T10:45:12;99199.71;;;19.80;30.96
67803;BME280;54601;51.378;-1.342;2023-03-25T10:47:37;99205.82;;;19.50;31.05
67803;BME280;54601;51.378;-1.342;2023-03-25T10:50:01;99207.07;;;19.74;30.91
67803;BME280;54601;51.378;-1.342;2023-03-25T10:52:26;99209.06;;;19.92;30.82
67803;BME280;54601;51.378;-1.342;2023-03-25T10:54:53;99213.04;;;19.97;30.78
67803;BME280;54601;51.378;-1.342;2023-03-25T10:57:19;99218.61;;;20.04;30.65
67803;BME280;54601;51.378;-1.342;2023-03-25T10:59:44;99218.73;;;19.92;30.74
67803;BME280;54601;51.378;-1.342;2023-03-25T11:02:13;99217.19;;;19.82;30.62
67803;BME280;54601;51.378;-1.342;2023-03-25T11:04:37;99211.85;;;19.75;30.68
67803;BME280;54601;51.378;-1.342;2023-03-25T11:06:58;99213.15;;;19.79;30.64
67803;BME280;54601;51.378;-1.342;2023-03-25T11:09:24;99217.23;;;20.09;30.60
67803;BME280;54601;51.378;-1.342;2023-03-25T11:11:47;99224.01;;;19.63;30.85
67803;BME280;54601;51.378;-1.342;2023-03-25T11:14:12;99218.77;;;20.10;30.80
67803;BME280;54601;51.378;-1.342;2023-03-25T11:16:42;99216.34;;;19.92;30.73
67803;BME280;54601;51.378;-1.342;2023-03-25T11:19:03;99217.78;;;20.01;30.61
67803;BME280;54601;51.378;-1.342;2023-03-25T11:21:32;99225.69;;;19.94;30.42
67803;BME280;54601;51.378;-1.342;2023-03-25T11:23:52;99225.53;;;19.85;30.51
67803;BME280;54601;51.378;-1.342;2023-03-25T11:26:19;99220.18;;;20.01;30.55
67803;BME280;54601;51.378;-1.342;2023-03-25T11:28:44;99225.64;;;20.00;30.55
67803;BME280;54601;51.378;-1.342;2023-03-25T11:31:11;99232.27;;;19.96;30.61
67803;BME280;54601;51.378;-1.342;2023-03-25T11:33:33;99238.04;;;19.99;30.58
67803;BME280;54601;51.378;-1.342;2023-03-25T11:38:28;99246.07;;;20.11;30.48
67803;BME280;54601;51.378;-1.342;2023-03-25T11:40:51;99240.20;;;19.97;30.56
67803;BME280;54601;51.378;-1.342;2023-03-25T11:43:19;99252.83;;;19.97;30.31
67803;BME280;54601;51.378;-1.342;2023-03-25T11:45:38;99249.34;;;20.12;30.35
67803;BME280;54601;51.378;-1.342;2023-03-25T11:48:09;99279.95;;;20.16;30.32
67803;BME280;54601;51.378;-1.342;2023-03-25T11:50:29;99279.08;;;20.15;30.30
67803;BME280;54601;51.378;-1.342;2023-03-25T11:52:55;99281.45;;;20.18;30.25
67803;BME280;54601;51.378;-1.342;2023-03-25T11:55:22;99272.13;;;19.89;30.34
67803;BME280;54601;51.378;-1.342;2023-03-25T11:57:45;99274.67;;;19.96;30.50
67803;BME280;54601;51.378;-1.342;2023-03-25T12:00:19;99267.80;;;20.04;30.44
67803;BME280;54601;51.378;-1.342;2023-03-25T12:02:37;99266.18;;;19.84;30.42
67803;BME280;54601;51.378;-1.342;2023-03-25T12:05:01;99265.84;;;19.95;30.54
67803;BME280;54601;51.378;-1.342;2023-03-25T12:07:24;99266.83;;;19.62;30.47
67803;BME280;54601;51.378;-1.342;2023-03-25T12:09:54;99255.35;;;19.90;30.39
67803;BME280;54601;51.378;-1.342;2023-03-25T12:14:50;99272.41;;;20.10;30.43
67803;BME280;54601;51.378;-1.342;2023-03-25T12:17:12;99255.40;;;20.06;30.48
67803;BME280;54601;51.378;-1.342;2023-03-25T12:19:36;99261.38;;;19.96;30.60
67803;BME280;54601;51.378;-1.342;2023-03-25T12:22:04;99259.68;;;19.99;30.61
67803;BME280;54601;51.378;-1.342;2023-03-25T12:24:31;99255.44;;;19.68;30.48
67803;BME280;54601;51.378;-1.342;2023-03-25T12:26:53;99260.07;;;19.80;30.57
67803;BME280;54601;51.378;-1.342;2023-03-25T12:29:19;99257.73;;;19.82;30.82
67803;BME280;54601;51.378;-1.342;2023-03-25T12:31:46;99251.06;;;19.89;30.50
67803;BME280;54601;51.378;-1.342;2023-03-25T12:34:08;99265.60;;;20.22;30.33
67803;BME280;54601;51.378;-1.342;2023-03-25T12:36:36;99273.71;;;19.85;30.48
67803;BME280;54601;51.378;-1.342;2023-03-25T12:39:00;99262.20;;;20.12;30.42
67803;BME280;54601;51.378;-1.342;2023-03-25T12:41:20;99262.71;;;20.05;30.51
67803;BME280;54601;51.378;-1.342;2023-03-25T12:43:53;99252.14;;;19.63;30.47
67803;BME280;54601;51.378;-1.342;2023-03-25T12:46:15;99265.19;;;19.96;30.34
67803;BME280;54601;51.378;-1.342;2023-03-25T12:48:43;99264.73;;;19.94;30.61
67803;BME280;54601;51.378;-1.342;2023-03-25T12:51:01;99258.37;;;19.84;30.47
67803;BME280;54601;51.378;-1.342;2023-03-25T12:53:33;99267.27;;;20.03;30.51